sensor_id;sensor_type;location;lat;lon;timestamp;P1;durP1;ratioP1;P2;durP2;ratioP2
26578;SDS011;14227;47.674;19.320;2023-04-29T00:00:41;33.33;;;21.80;;
26578;SDS011;14227;47.674;19.320;2023-04-29T00:03:07;29.60;;;19.75;;
26578;SDS011;14227;47.674;19.320;2023-04-29T00:05:33;32.92;;;20.95;;
26578;SDS011;14227;47.674;19.320;2023-04-29T00:07:59;34.80;;;21.67;;
26578;SDS011;14227;47.674;19.320;2023-04-29T00:10:25;31.40;;;21.85;;
26578;SDS011;14227;47.674;19.320;2023-04-29T00:12:51;57.50;;;31.25;;
26578;SDS011;14227;47.674;19.320;2023-04-29T00:15:16;64.47;;;30.85;;
26578;SDS011;14227;47.674;19.320;2023-04-29T00:17:42;43.25;;;26.08;;
26578;SDS011;14227;47.674;19.320;2023-04-29T00:20:09;44.63;;;26.13;;
26578;SDS011;14227;47.674;19.320;2023-04-29T00:22:36;45.22;;;25.75;;
26578;SDS011;14227;47.674;19.320;2023-04-29T00:25:03;46.92;;;27.38;;
26578;SDS011;14227;47.674;19.320;2023-04-29T00:27:31;42.47;;;24.67;;
26578;SDS011;14227;47.674;19.320;2023-04-29T00:29:57;35.25;;;23.13;;
26578;SDS011;14227;47.674;19.320;2023-04-29T00:32:23;39.45;;;23.95;;
26578;SDS011;14227;47.674;19.320;2023-04-29T00:34:49;41.67;;;25.00;;
26578;SDS011;14227;47.674;19.320;2023-04-29T00:37:15;40.30;;;23.95;;
26578;SDS011;14227;47.674;19.320;2023-04-29T00:39:41;34.47;;;23.33;;
26578;SDS011;14227;47.674;19.320;2023-04-29T00:42:07;39.42;;;24.90;;
26578;SDS011;14227;47.674;19.320;2023-04-29T00:44:34;43.90;;;26.40;;
26578;SDS011;14227;47.674;19.320;2023-04-29T00:47:00;38.47;;;23.92;;
26578;SDS011;14227;47.674;19.320;2023-04-29T00:49:26;32.97;;;23.60;;
26578;SDS011;14227;47.674;19.320;2023-04-29T00:51:52;44.90;;;27.65;;
26578;SDS011;14227;47.674;19.320;2023-04-29T00:54:19;35.75;;;23.00;;
26578;SDS011;14227;47.674;19.320;2023-04-29T00:56:45;42.40;;;25.77;;
26578;SDS011;14227;47.674;19.320;2023-04-29T00:59:12;44.05;;;25.23;;
26578;SDS011;14227;47.674;19.320;2023-04-29T01:01:40;41.72;;;25.48;;
26578;SDS011;14227;47.674;19.320;2023-04-29T01:04:06;42.40;;;26.05;;
26578;SDS011;14227;47.674;19.320;2023-04-29T01:12:47;36.30;;;23.17;;
26578;SDS011;14227;47.674;19.320;2023-04-29T01:15:48;51.53;;;28.13;;
26578;SDS011;14227;47.674;19.320;2023-04-29T01:18:18;46.47;;;26.95;;
26578;SDS011;14227;47.674;19.320;2023-04-29T01:20:49;45.30;;;26.55;;
26578;SDS011;14227;47.674;19.320;2023-04-29T01:23:16;44.88;;;28.27;;
26578;SDS011;14227;47.674;19.320;2023-04-29T01:25:41;41.53;;;27.00;;
26578;SDS011;14227;47.674;19.320;2023-04-29T01:28:11;43.22;;;28.77;;
26578;SDS011;14227;47.674;19.320;2023-04-29T01:33:21;52.50;;;30.92;;
26578;SDS011;14227;47.674;19.320;2023-04-29T01:35:57;41.55;;;27.10;;
26578;SDS011;14227;47.674;19.320;2023-04-29T01:38:46;42.58;;;26.40;;
26578;SDS011;14227;47.674;19.320;2023-04-29T01:41:17;49.38;;;25.48;;
26578;SDS011;14227;47.674;19.320;2023-04-29T01:43:50;38.78;;;26.80;;
26578;SDS011;14227;47.674;19.320;2023-04-29T01:46:16;44.17;;;27.60;;
26578;SDS011;14227;47.674;19.320;2023-04-29T01:48:43;39.13;;;25.08;;
26578;SDS011;14227;47.674;19.320;2023-04-29T01:51:10;41.72;;;26.75;;
26578;SDS011;14227;47.674;19.320;2023-04-29T01:53:36;47.25;;;27.38;;
26578;SDS011;14227;47.674;19.320;2023-04-29T01:56:03;45.10;;;28.17;;
26578;SDS011;14227;47.674;19.320;2023-04-29T01:58:29;49.40;;;28.42;;
26578;SDS011;14227;47.674;19.320;2023-04-29T02:00:55;40.80;;;26.00;;
26578;SDS011;14227;47.674;19.320;2023-04-29T02:03:20;38.63;;;23.33;;
26578;SDS011;14227;47.674;19.320;2023-04-29T02:05:46;34.83;;;23.80;;
26578;SDS011;14227;47.674;19.320;2023-04-29T02:08:14;36.75;;;24.67;;
26578;SDS011;14227;47.674;19.320;2023-04-29T02:10:50;34.78;;;22.13;;
26578;SDS011;14227;47.674;19.320;2023-04-29T02:13:16;33.17;;;23.52;;
26578;SDS011;14227;47.674;19.320;2023-04-29T02:15:42;36.97;;;24.00;;
26578;SDS011;14227;47.674;19.320;2023-04-29T02:18:08;42.58;;;27.20;;
26578;SDS011;14227;47.674;19.320;2023-04-29T02:20:33;42.80;;;27.38;;
26578;SDS011;14227;47.674;19.320;2023-04-29T02:22:59;39.13;;;25.77;;
26578;SDS011;14227;47.674;19.320;2023-04-29T02:25:25;45.13;;;27.40;;
26578;SDS011;14227;47.674;19.320;2023-04-29T02:27:50;45.15;;;28.17;;
26578;SDS011;14227;47.674;19.320;2023-04-29T02:30:17;42.42;;;27.10;;
26578;SDS011;14227;47.674;19.320;2023-04-29T02:32:42;37.55;;;24.25;;
26578;SDS011;14227;47.674;19.320;2023-04-29T02:35:08;41.92;;;27.30;;
26578;SDS011;14227;47.674;19.320;2023-04-29T02:37:34;46.35;;;27.42;;
26578;SDS011;14227;47.674;19.320;2023-04-29T02:40:00;39.22;;;25.42;;
26578;SDS011;14227;47.674;19.320;2023-04-29T02:42:27;41.70;;;26.95;;
26578;SDS011;14227;47.674;19.320;2023-04-29T02:44:53;41.38;;;26.23;;
26578;SDS011;14227;47.674;19.320;2023-04-29T02:47:19;41.97;;;25.70;;
26578;SDS011;14227;47.674;19.320;2023-04-29T02:49:45;50.70;;;28.48;;
26578;SDS011;14227;47.674;19.320;2023-04-29T02:52:10;38.97;;;25.48;;
26578;SDS011;14227;47.674;19.320;2023-04-29T02:54:36;34.60;;;23.65;;
26578;SDS011;14227;47.674;19.320;2023-04-29T02:57:02;46.70;;;27.38;;
26578;SDS011;14227;47.674;19.320;2023-04-29T02:59:28;37.47;;;24.73;;
26578;SDS011;14227;47.674;19.320;2023-04-29T03:01:54;42.72;;;23.73;;
26578;SDS011;14227;47.674;19.320;2023-04-29T03:04:19;37.90;;;24.13;;
26578;SDS011;14227;47.674;19.320;2023-04-29T03:06:45;35.40;;;22.50;;
26578;SDS011;14227;47.674;19.320;2023-04-29T03:09:11;31.48;;;21.02;;
26578;SDS011;14227;47.674;19.320;2023-04-29T03:11:38;39.72;;;24.02;;
26578;SDS011;14227;47.674;19.320;2023-04-29T03:14:04;42.83;;;27.25;;
26578;SDS011;14227;47.674;19.320;2023-04-29T03:16:29;38.90;;;24.70;;
26578;SDS011;14227;47.674;19.320;2023-04-29T03:18:55;45.03;;;26.13;;
26578;SDS011;14227;47.674;19.320;2023-04-29T03:21:23;37.58;;;25.65;;
26578;SDS011;14227;47.674;19.320;2023-04-29T03:23:51;43.95;;;28.23;;
26578;SDS011;14227;47.674;19.320;2023-04-29T03:26:17;47.83;;;29.67;;
26578;SDS011;14227;47.674;19.320;2023-04-29T03:28:43;48.95;;;29.05;;
26578;SDS011;14227;47.674;19.320;2023-04-29T03:31:08;44.85;;;28.75;;
26578;SDS011;14227;47.674;19.320;2023-04-29T03:33:36;46.10;;;26.08;;
26578;SDS011;14227;47.674;19.320;2023-04-29T03:36:01;36.92;;;25.40;;
26578;SDS011;14227;47.674;19.320;2023-04-29T03:38:28;38.90;;;24.75;;
26578;SDS011;14227;47.674;19.320;2023-04-29T03:40:54;40.25;;;26.33;;
26578;SDS011;14227;47.674;19.320;2023-04-29T03:43:19;32.97;;;22.58;;
26578;SDS011;14227;47.674;19.320;2023-04-29T03:45:45;37.03;;;24.45;;
26578;SDS011;14227;47.674;19.320;2023-04-29T03:48:11;41.92;;;26.20;;
26578;SDS011;14227;47.674;19.320;2023-04-29T03:50:37;38.42;;;24.02;;
26578;SDS011;14227;47.674;19.320;2023-04-29T03:53:02;40.90;;;22.90;;
26578;SDS011;14227;47.674;19.320;2023-04-29T03:55:28;34.38;;;22.38;;
26578;SDS011;14227;47.674;19.320;2023-04-29T03:57:54;37.30;;;24.60;;
26578;SDS011;14227;47.674;19.320;2023-04-29T04:00:20;34.65;;;22.92;;
26578;SDS011;14227;47.674;19.320;2023-04-29T04:02:45;39.35;;;23.58;;
26578;SDS011;14227;47.674;19.320;2023-04-29T04:05:11;36.30;;;23.45;;
26578;SDS011;14227;47.674;19.320;2023-04-29T04:07:37;39.53;;;25.45;;
26578;SDS011;14227;47.674;19.320;2023-04-29T04:10:02;39.72;;;24.73;;
26578;SDS011;14227;47.674;19.320;2023-04-29T04:12:28;33.58;;;23.83;;
26578;SDS011;14227;47.674;19.320;2023-04-29T04:14:54;37.95;;;24.65;;
26578;SDS011;14227;47.674;19.320;2023-04-29T04:17:21;43.33;;;26.45;;
26578;SDS011;14227;47.674;19.320;2023-04-29T04:19:46;33.67;;;24.23;;
26578;SDS011;14227;47.674;19.320;2023-04-29T04:22:12;40.80;;;25.92;;
26578;SDS011;14227;47.674;19.320;2023-04-29T04:24:38;34.50;;;24.88;;
26578;SDS011;14227;47.674;19.320;2023-04-29T04:27:03;38.63;;;23.98;;
26578;SDS011;14227;47.674;19.320;2023-04-29T04:29:29;33.00;;;23.40;;
26578;SDS011;14227;47.674;19.320;2023-04-29T04:31:55;34.47;;;22.20;;
26578;SDS011;14227;47.674;19.320;2023-04-29T04:34:20;34.30;;;23.02;;
26578;SDS011;14227;47.674;19.320;2023-04-29T04:36:46;34.13;;;24.30;;
26578;SDS011;14227;47.674;19.320;2023-04-29T04:39:12;34.72;;;23.50;;
26578;SDS011;14227;47.674;19.320;2023-04-29T04:41:37;36.03;;;24.38;;
26578;SDS011;14227;47.674;19.320;2023-04-29T04:44:03;37.55;;;23.75;;
26578;SDS011;14227;47.674;19.320;2023-04-29T04:46:29;38.95;;;25.88;;
26578;SDS011;14227;47.674;19.320;2023-04-29T04:48:55;31.63;;;22.48;;
26578;SDS011;14227;47.674;19.320;2023-04-29T04:51:21;42.67;;;24.75;;
26578;SDS011;14227;47.674;19.320;2023-04-29T04:53:46;38.53;;;24.45;;
26578;SDS011;14227;47.674;19.320;2023-04-29T04:56:12;42.38;;;25.80;;
26578;SDS011;14227;47.674;19.320;2023-04-29T04:58:38;38.45;;;27.15;;
26578;SDS011;14227;47.674;19.320;2023-04-29T05:01:04;46.25;;;26.95;;
26578;SDS011;14227;47.674;19.320;2023-04-29T05:03:30;43.85;;;27.75;;
26578;SDS011;14227;47.674;19.320;2023-04-29T05:05:56;45.10;;;26.85;;
26578;SDS011;14227;47.674;19.320;2023-04-29T05:08:22;40.78;;;26.20;;
26578;SDS011;14227;47.674;19.320;2023-04-29T05:10:48;38.00;;;25.13;;
26578;SDS011;14227;47.674;19.320;2023-04-29T05:13:14;33.28;;;23.65;;
26578;SDS011;14227;47.674;19.320;2023-04-29T05:15:40;38.08;;;26.33;;
26578;SDS011;14227;47.674;19.320;2023-04-29T05:18:07;45.90;;;28.30;;
26578;SDS011;14227;47.674;19.320;2023-04-29T05:20:32;47.13;;;31.65;;
26578;SDS011;14227;47.674;19.320;2023-04-29T05:22:58;47.85;;;30.92;;
26578;SDS011;14227;47.674;19.320;2023-04-29T05:25:24;36.15;;;25.55;;
26578;SDS011;14227;47.674;19.320;2023-04-29T05:27:49;39.42;;;26.63;;
26578;SDS011;14227;47.674;19.320;2023-04-29T05:30:16;40.30;;;24.58;;
26578;SDS011;14227;47.674;19.320;2023-04-29T05:32:43;30.88;;;20.17;;
26578;SDS011;14227;47.674;19.320;2023-04-29T05:35:10;32.47;;;22.42;;
26578;SDS011;14227;47.674;19.320;2023-04-29T05:37:36;32.05;;;21.73;;
26578;SDS011;14227;47.674;19.320;2023-04-29T05:40:02;34.03;;;22.63;;
26578;SDS011;14227;47.674;19.320;2023-04-29T05:42:28;32.25;;;20.85;;
26578;SDS011;14227;47.674;19.320;2023-04-29T05:44:54;29.70;;;21.25;;
26578;SDS011;14227;47.674;19.320;2023-04-29T05:47:20;34.08;;;22.77;;
26578;SDS011;14227;47.674;19.320;2023-04-29T05:49:46;33.88;;;20.63;;
26578;SDS011;14227;47.674;19.320;2023-04-29T05:52:12;28.35;;;20.80;;
26578;SDS011;14227;47.674;19.320;2023-04-29T05:54:38;36.33;;;22.92;;
26578;SDS011;14227;47.674;19.320;2023-04-29T05:57:03;22.17;;;16.25;;
26578;SDS011;14227;47.674;19.320;2023-04-29T05:59:29;33.40;;;18.35;;
26578;SDS011;14227;47.674;19.320;2023-04-29T06:01:55;30.05;;;20.58;;
26578;SDS011;14227;47.674;19.320;2023-04-29T06:04:22;26.50;;;18.23;;
26578;SDS011;14227;47.674;19.320;2023-04-29T06:06:49;31.75;;;20.08;;
26578;SDS011;14227;47.674;19.320;2023-04-29T06:09:18;30.67;;;19.73;;
26578;SDS011;14227;47.674;19.320;2023-04-29T06:11:45;25.55;;;19.88;;
26578;SDS011;14227;47.674;19.320;2023-04-29T06:14:11;37.90;;;22.35;;
26578;SDS011;14227;47.674;19.320;2023-04-29T06:16:37;29.63;;;22.67;;
26578;SDS011;14227;47.674;19.320;2023-04-29T06:19:03;29.33;;;18.33;;
26578;SDS011;14227;47.674;19.320;2023-04-29T06:21:29;29.63;;;18.42;;
26578;SDS011;14227;47.674;19.320;2023-04-29T06:23:55;28.45;;;19.25;;
26578;SDS011;14227;47.674;19.320;2023-04-29T06:26:21;24.00;;;18.83;;
26578;SDS011;14227;47.674;19.320;2023-04-29T06:28:47;30.38;;;20.30;;
26578;SDS011;14227;47.674;19.320;2023-04-29T06:31:14;26.80;;;19.58;;
26578;SDS011;14227;47.674;19.320;2023-04-29T06:33:40;26.67;;;18.77;;
26578;SDS011;14227;47.674;19.320;2023-04-29T06:36:06;24.85;;;18.02;;
26578;SDS011;14227;47.674;19.320;2023-04-29T06:38:32;26.13;;;18.98;;
26578;SDS011;14227;47.674;19.320;2023-04-29T06:40:57;29.25;;;19.13;;
26578;SDS011;14227;47.674;19.320;2023-04-29T06:43:28;28.88;;;19.95;;
26578;SDS011;14227;47.674;19.320;2023-04-29T06:45:54;28.95;;;18.00;;
26578;SDS011;14227;47.674;19.320;2023-04-29T06:48:20;29.08;;;20.80;;
26578;SDS011;14227;47.674;19.320;2023-04-29T06:53:15;30.27;;;20.58;;
26578;SDS011;14227;47.674;19.320;2023-04-29T06:55:41;21.95;;;16.05;;
26578;SDS011;14227;47.674;19.320;2023-04-29T06:58:06;29.55;;;18.02;;
26578;SDS011;14227;47.674;19.320;2023-04-29T07:00:32;28.92;;;19.02;;
26578;SDS011;14227;47.674;19.320;2023-04-29T07:02:59;23.73;;;17.08;;
26578;SDS011;14227;47.674;19.320;2023-04-29T07:05:25;27.73;;;17.52;;
26578;SDS011;14227;47.674;19.320;2023-04-29T07:07:51;27.08;;;18.27;;
26578;SDS011;14227;47.674;19.320;2023-04-29T07:10:16;22.52;;;16.83;;
26578;SDS011;14227;47.674;19.320;2023-04-29T07:12:42;28.65;;;17.35;;
26578;SDS011;14227;47.674;19.320;2023-04-29T07:15:08;23.35;;;17.50;;
26578;SDS011;14227;47.674;19.320;2023-04-29T07:17:33;29.98;;;18.45;;
26578;SDS011;14227;47.674;19.320;2023-04-29T07:19:59;30.13;;;19.80;;
26578;SDS011;14227;47.674;19.320;2023-04-29T07:22:25;25.77;;;18.15;;
26578;SDS011;14227;47.674;19.320;2023-04-29T07:24:54;27.42;;;17.45;;
26578;SDS011;14227;47.674;19.320;2023-04-29T07:27:21;25.95;;;16.80;;
26578;SDS011;14227;47.674;19.320;2023-04-29T07:29:46;27.10;;;18.08;;
26578;SDS011;14227;47.674;19.320;2023-04-29T07:32:12;24.77;;;16.23;;
26578;SDS011;14227;47.674;19.320;2023-04-29T07:34:39;26.33;;;16.42;;
26578;SDS011;14227;47.674;19.320;2023-04-29T07:37:05;19.60;;;15.60;;
26578;SDS011;14227;47.674;19.320;2023-04-29T07:39:31;23.95;;;17.25;;
26578;SDS011;14227;47.674;19.320;2023-04-29T07:41:56;27.63;;;16.33;;
26578;SDS011;14227;47.674;19.320;2023-04-29T07:44:24;23.55;;;16.52;;
26578;SDS011;14227;47.674;19.320;2023-04-29T07:46:49;25.63;;;16.42;;
26578;SDS011;14227;47.674;19.320;2023-04-29T07:49:15;22.60;;;16.13;;
26578;SDS011;14227;47.674;19.320;2023-04-29T07:51:41;28.23;;;17.50;;
26578;SDS011;14227;47.674;19.320;2023-04-29T07:54:08;27.45;;;16.20;;
26578;SDS011;14227;47.674;19.320;2023-04-29T07:56:33;24.27;;;16.20;;
26578;SDS011;14227;47.674;19.320;2023-04-29T07:58:59;25.02;;;15.13;;
26578;SDS011;14227;47.674;19.320;2023-04-29T08:01:25;22.10;;;15.65;;
26578;SDS011;14227;47.674;19.320;2023-04-29T08:03:52;24.67;;;17.23;;
26578;SDS011;14227;47.674;19.320;2023-04-29T08:06:18;23.85;;;15.52;;
26578;SDS011;14227;47.674;19.320;2023-04-29T08:08:46;21.88;;;14.65;;
26578;SDS011;14227;47.674;19.320;2023-04-29T08:11:16;21.35;;;14.63;;
26578;SDS011;14227;47.674;19.320;2023-04-29T08:13:43;22.38;;;13.98;;
26578;SDS011;14227;47.674;19.320;2023-04-29T08:16:09;17.23;;;12.43;;
26578;SDS011;14227;47.674;19.320;2023-04-29T08:18:35;14.57;;;11.80;;
26578;SDS011;14227;47.674;19.320;2023-04-29T08:21:01;19.52;;;12.68;;
26578;SDS011;14227;47.674;19.320;2023-04-29T08:23:27;17.13;;;11.32;;
26578;SDS011;14227;47.674;19.320;2023-04-29T08:25:53;13.65;;;10.35;;
26578;SDS011;14227;47.674;19.320;2023-04-29T08:28:20;14.35;;;9.95;;
26578;SDS011;14227;47.674;19.320;2023-04-29T08:30:46;15.95;;;10.20;;
26578;SDS011;14227;47.674;19.320;2023-04-29T08:33:12;21.13;;;9.82;;
26578;SDS011;14227;47.674;19.320;2023-04-29T08:35:38;16.98;;;10.63;;
26578;SDS011;14227;47.674;19.320;2023-04-29T08:38:04;14.73;;;10.55;;
26578;SDS011;14227;47.674;19.320;2023-04-29T08:40:40;14.63;;;11.10;;
26578;SDS011;14227;47.674;19.320;2023-04-29T08:43:07;17.00;;;11.40;;
26578;SDS011;14227;47.674;19.320;2023-04-29T08:45:34;12.65;;;9.65;;
26578;SDS011;14227;47.674;19.320;2023-04-29T08:48:04;15.18;;;10.32;;
26578;SDS011;14227;47.674;19.320;2023-04-29T08:50:32;15.38;;;9.45;;
26578;SDS011;14227;47.674;19.320;2023-04-29T08:53:02;18.02;;;10.95;;
26578;SDS011;14227;47.674;19.320;2023-04-29T08:55:28;21.25;;;11.32;;
26578;SDS011;14227;47.674;19.320;2023-04-29T08:57:54;18.70;;;10.20;;
26578;SDS011;14227;47.674;19.320;2023-04-29T09:00:21;12.90;;;10.00;;
26578;SDS011;14227;47.674;19.320;2023-04-29T09:02:49;15.40;;;10.27;;
26578;SDS011;14227;47.674;19.320;2023-04-29T09:05:17;16.52;;;9.98;;
26578;SDS011;14227;47.674;19.320;2023-04-29T09:07:43;19.13;;;10.25;;
26578;SDS011;14227;47.674;19.320;2023-04-29T09:10:10;15.23;;;9.85;;
26578;SDS011;14227;47.674;19.320;2023-04-29T09:12:37;14.80;;;10.07;;
26578;SDS011;14227;47.674;19.320;2023-04-29T09:15:02;16.02;;;11.40;;
26578;SDS011;14227;47.674;19.320;2023-04-29T09:22:55;16.70;;;10.45;;
26578;SDS011;14227;47.674;19.320;2023-04-29T09:25:23;19.42;;;10.10;;
26578;SDS011;14227;47.674;19.320;2023-04-29T09:27:51;15.18;;;9.38;;
26578;SDS011;14227;47.674;19.320;2023-04-29T09:30:17;17.67;;;9.02;;
26578;SDS011;14227;47.674;19.320;2023-04-29T09:32:43;14.52;;;9.25;;
26578;SDS011;14227;47.674;19.320;2023-04-29T09:35:21;18.23;;;9.35;;
26578;SDS011;14227;47.674;19.320;2023-04-29T09:37:51;12.63;;;8.75;;
26578;SDS011;14227;47.674;19.320;2023-04-29T09:40:32;15.57;;;8.88;;
26578;SDS011;14227;47.674;19.320;2023-04-29T09:42:58;16.42;;;8.82;;
26578;SDS011;14227;47.674;19.320;2023-04-29T09:45:34;10.00;;;8.60;;
26578;SDS011;14227;47.674;19.320;2023-04-29T09:48:04;21.25;;;8.98;;
26578;SDS011;14227;47.674;19.320;2023-04-29T09:50:31;12.45;;;7.93;;
26578;SDS011;14227;47.674;19.320;2023-04-29T09:52:58;12.23;;;7.88;;
26578;SDS011;14227;47.674;19.320;2023-04-29T09:55:24;17.67;;;7.65;;
26578;SDS011;14227;47.674;19.320;2023-04-29T09:57:53;15.27;;;8.13;;
26578;SDS011;14227;47.674;19.320;2023-04-29T10:00:19;15.68;;;7.28;;
26578;SDS011;14227;47.674;19.320;2023-04-29T10:02:46;11.07;;;7.60;;
26578;SDS011;14227;47.674;19.320;2023-04-29T10:05:13;11.25;;;7.75;;
26578;SDS011;14227;47.674;19.320;2023-04-29T10:07:40;14.00;;;7.38;;
26578;SDS011;14227;47.674;19.320;2023-04-29T10:10:06;14.90;;;7.85;;
26578;SDS011;14227;47.674;19.320;2023-04-29T10:12:36;13.68;;;7.10;;
26578;SDS011;14227;47.674;19.320;2023-04-29T10:15:20;10.20;;;7.88;;
26578;SDS011;14227;47.674;19.320;2023-04-29T10:18:05;11.38;;;8.00;;
26578;SDS011;14227;47.674;19.320;2023-04-29T10:20:37;14.25;;;7.88;;
26578;SDS011;14227;47.674;19.320;2023-04-29T10:23:05;12.85;;;7.55;;
26578;SDS011;14227;47.674;19.320;2023-04-29T10:25:31;12.95;;;6.82;;
26578;SDS011;14227;47.674;19.320;2023-04-29T10:28:00;12.68;;;7.03;;
26578;SDS011;14227;47.674;19.320;2023-04-29T10:30:28;9.80;;;7.03;;
26578;SDS011;14227;47.674;19.320;2023-04-29T10:32:55;14.23;;;7.50;;
26578;SDS011;14227;47.674;19.320;2023-04-29T10:35:26;12.18;;;6.68;;
26578;SDS011;14227;47.674;19.320;2023-04-29T10:37:52;15.30;;;7.72;;
26578;SDS011;14227;47.674;19.320;2023-04-29T10:40:29;12.52;;;6.68;;
26578;SDS011;14227;47.674;19.320;2023-04-29T10:43:00;12.93;;;6.90;;
26578;SDS011;14227;47.674;19.320;2023-04-29T10:50:30;11.18;;;6.20;;
26578;SDS011;14227;47.674;19.320;2023-04-29T10:52:57;8.52;;;6.03;;
26578;SDS011;14227;47.674;19.320;2023-04-29T10:55:25;14.15;;;7.30;;
26578;SDS011;14227;47.674;19.320;2023-04-29T10:57:52;12.32;;;6.88;;
26578;SDS011;14227;47.674;19.320;2023-04-29T11:00:27;9.88;;;6.63;;
26578;SDS011;14227;47.674;19.320;2023-04-29T11:02:54;10.75;;;6.35;;
26578;SDS011;14227;47.674;19.320;2023-04-29T11:08:09;11.88;;;6.75;;
26578;SDS011;14227;47.674;19.320;2023-04-29T11:10:47;9.18;;;6.20;;
26578;SDS011;14227;47.674;19.320;2023-04-29T11:13:19;10.15;;;6.55;;
26578;SDS011;14227;47.674;19.320;2023-04-29T11:15:50;13.00;;;6.05;;
26578;SDS011;14227;47.674;19.320;2023-04-29T11:18:16;7.25;;;5.80;;
26578;SDS011;14227;47.674;19.320;2023-04-29T11:23:33;9.85;;;5.45;;
26578;SDS011;14227;47.674;19.320;2023-04-29T11:26:00;11.45;;;4.80;;
26578;SDS011;14227;47.674;19.320;2023-04-29T11:28:26;8.75;;;4.93;;
26578;SDS011;14227;47.674;19.320;2023-04-29T11:30:54;11.13;;;5.28;;
26578;SDS011;14227;47.674;19.320;2023-04-29T11:33:21;7.32;;;5.03;;
26578;SDS011;14227;47.674;19.320;2023-04-29T11:35:47;9.23;;;5.03;;
26578;SDS011;14227;47.674;19.320;2023-04-29T11:38:13;8.07;;;5.65;;
26578;SDS011;14227;47.674;19.320;2023-04-29T11:40:48;9.18;;;4.50;;
26578;SDS011;14227;47.674;19.320;2023-04-29T11:43:18;10.63;;;5.00;;
26578;SDS011;14227;47.674;19.320;2023-04-29T11:45:44;8.82;;;4.25;;
26578;SDS011;14227;47.674;19.320;2023-04-29T11:48:17;13.23;;;5.57;;
26578;SDS011;14227;47.674;19.320;2023-04-29T11:50:47;6.95;;;4.95;;
26578;SDS011;14227;47.674;19.320;2023-04-29T11:53:14;12.63;;;4.82;;
26578;SDS011;14227;47.674;19.320;2023-04-29T11:55:43;9.35;;;4.75;;
26578;SDS011;14227;47.674;19.320;2023-04-29T11:58:09;8.25;;;4.75;;
26578;SDS011;14227;47.674;19.320;2023-04-29T12:00:35;7.20;;;4.70;;
26578;SDS011;14227;47.674;19.320;2023-04-29T12:03:01;9.88;;;4.40;;
26578;SDS011;14227;47.674;19.320;2023-04-29T12:05:38;12.80;;;4.40;;
26578;SDS011;14227;47.674;19.320;2023-04-29T12:08:05;10.45;;;4.55;;
26578;SDS011;14227;47.674;19.320;2023-04-29T12:10:34;7.60;;;4.47;;
26578;SDS011;14227;47.674;19.320;2023-04-29T12:13:00;9.35;;;4.72;;
26578;SDS011;14227;47.674;19.320;2023-04-29T12:15:27;6.00;;;4.25;;
26578;SDS011;14227;47.674;19.320;2023-04-29T12:17:54;10.52;;;4.95;;
26578;SDS011;14227;47.674;19.320;2023-04-29T12:20:20;13.18;;;4.80;;
26578;SDS011;14227;47.674;19.320;2023-04-29T12:22:46;11.60;;;4.28;;
26578;SDS011;14227;47.674;19.320;2023-04-29T12:25:11;8.02;;;3.90;;
26578;SDS011;14227;47.674;19.320;2023-04-29T12:27:39;9.07;;;4.47;;
26578;SDS011;14227;47.674;19.320;2023-04-29T12:30:06;10.65;;;4.47;;
26578;SDS011;14227;47.674;19.320;2023-04-29T12:32:33;10.18;;;4.97;;
26578;SDS011;14227;47.674;19.320;2023-04-29T12:34:59;7.07;;;4.32;;
26578;SDS011;14227;47.674;19.320;2023-04-29T12:37:25;8.02;;;4.60;;
26578;SDS011;14227;47.674;19.320;2023-04-29T12:39:53;8.30;;;4.50;;
26578;SDS011;14227;47.674;19.320;2023-04-29T12:42:19;12.48;;;4.78;;
26578;SDS011;14227;47.674;19.320;2023-04-29T12:44:45;11.77;;;4.82;;
26578;SDS011;14227;47.674;19.320;2023-04-29T12:47:12;10.43;;;4.47;;
26578;SDS011;14227;47.674;19.320;2023-04-29T12:49:45;7.57;;;4.35;;
26578;SDS011;14227;47.674;19.320;2023-04-29T12:52:12;6.97;;;3.88;;
26578;SDS011;14227;47.674;19.320;2023-04-29T12:54:38;7.03;;;4.45;;
26578;SDS011;14227;47.674;19.320;2023-04-29T12:57:07;6.53;;;4.20;;
26578;SDS011;14227;47.674;19.320;2023-04-29T12:59:34;7.50;;;3.90;;
26578;SDS011;14227;47.674;19.320;2023-04-29T13:02:00;7.53;;;4.65;;
26578;SDS011;14227;47.674;19.320;2023-04-29T13:04:25;6.32;;;4.22;;
26578;SDS011;14227;47.674;19.320;2023-04-29T13:06:52;5.60;;;3.97;;
26578;SDS011;14227;47.674;19.320;2023-04-29T13:09:24;9.15;;;4.28;;
26578;SDS011;14227;47.674;19.320;2023-04-29T13:11:50;7.72;;;4.20;;
26578;SDS011;14227;47.674;19.320;2023-04-29T13:14:16;8.05;;;4.70;;
26578;SDS011;14227;47.674;19.320;2023-04-29T13:16:42;9.55;;;4.10;;
26578;SDS011;14227;47.674;19.320;2023-04-29T13:19:09;9.10;;;4.40;;
26578;SDS011;14227;47.674;19.320;2023-04-29T13:21:35;6.18;;;4.20;;
26578;SDS011;14227;47.674;19.320;2023-04-29T13:24:00;8.90;;;4.00;;
26578;SDS011;14227;47.674;19.320;2023-04-29T13:26:26;10.43;;;4.07;;
26578;SDS011;14227;47.674;19.320;2023-04-29T13:28:52;7.38;;;4.70;;
26578;SDS011;14227;47.674;19.320;2023-04-29T13:31:17;9.55;;;4.40;;
26578;SDS011;14227;47.674;19.320;2023-04-29T13:33:43;12.25;;;4.68;;
26578;SDS011;14227;47.674;19.320;2023-04-29T13:36:09;12.65;;;4.38;;
26578;SDS011;14227;47.674;19.320;2023-04-29T13:38:35;11.65;;;4.25;;
26578;SDS011;14227;47.674;19.320;2023-04-29T13:41:00;7.43;;;4.47;;
26578;SDS011;14227;47.674;19.320;2023-04-29T13:43:26;9.90;;;4.18;;
26578;SDS011;14227;47.674;19.320;2023-04-29T13:45:52;9.00;;;4.45;;
26578;SDS011;14227;47.674;19.320;2023-04-29T13:48:18;13.23;;;4.82;;
26578;SDS011;14227;47.674;19.320;2023-04-29T13:50:44;10.23;;;4.75;;
26578;SDS011;14227;47.674;19.320;2023-04-29T13:53:10;7.10;;;3.95;;
26578;SDS011;14227;47.674;19.320;2023-04-29T13:55:36;8.15;;;4.22;;
26578;SDS011;14227;47.674;19.320;2023-04-29T13:58:01;11.88;;;4.10;;
26578;SDS011;14227;47.674;19.320;2023-04-29T14:00:27;7.47;;;4.40;;
26578;SDS011;14227;47.674;19.320;2023-04-29T14:02:53;6.85;;;3.90;;
26578;SDS011;14227;47.674;19.320;2023-04-29T14:05:19;6.82;;;3.75;;
26578;SDS011;14227;47.674;19.320;2023-04-29T14:07:45;9.32;;;3.97;;
26578;SDS011;14227;47.674;19.320;2023-04-29T14:10:11;12.55;;;4.15;;
26578;SDS011;14227;47.674;19.320;2023-04-29T14:12:36;6.82;;;4.15;;
26578;SDS011;14227;47.674;19.320;2023-04-29T14:15:02;7.85;;;3.80;;
26578;SDS011;14227;47.674;19.320;2023-04-29T14:17:28;7.45;;;4.35;;
26578;SDS011;14227;47.674;19.320;2023-04-29T14:19:54;6.57;;;4.10;;
26578;SDS011;14227;47.674;19.320;2023-04-29T14:22:19;10.52;;;4.70;;
26578;SDS011;14227;47.674;19.320;2023-04-29T14:24:45;8.38;;;4.30;;
26578;SDS011;14227;47.674;19.320;2023-04-29T14:27:11;10.07;;;4.60;;
26578;SDS011;14227;47.674;19.320;2023-04-29T14:29:36;6.05;;;4.43;;
26578;SDS011;14227;47.674;19.320;2023-04-29T14:32:02;9.45;;;4.53;;
26578;SDS011;14227;47.674;19.320;2023-04-29T14:34:28;10.38;;;4.70;;
26578;SDS011;14227;47.674;19.320;2023-04-29T14:36:54;5.65;;;3.95;;
26578;SDS011;14227;47.674;19.320;2023-04-29T14:39:23;9.57;;;4.90;;
26578;SDS011;14227;47.674;19.320;2023-04-29T14:41:49;6.75;;;3.95;;